Time;durP1;ratioP1;P1;durP2;ratioP2;P2;SDS_P1;SDS_P2;PMS_P1;PMS_P2;Temp;Humidity;BMP_temperature;BMP_pressure;BME280_temperature;BME280_humidity;BME280_pressure;Samples;Min_cycle;Max_cycle;Signal;HPM_P1;HPM_P2
2023/06/02 00:03:05;;;;;;;9.13;3.93;;;;;;;12.73;80.38;101841.66;6098687;28;20503;-79
2023/06/02 00:06:30;;;;;;;13.57;3.93;;;;;;;12.79;80.23;101844.72;6102385;28;20228;-79
2023/06/02 00:09:51;;;;;;;8.27;4.07;;;;;;;12.75;81.03;101847.81;6111891;28;20625;-79
2023/06/02 00:13:12;;;;;;;10.70;4.27;;;;;;;12.69;80.94;101842.91;6104767;28;20946;-80
2023/06/02 00:16:42;;;;;;;9.10;3.40;;;;;;;12.68;81.31;101836.63;6102694;28;20236;-80
2023/06/02 00:20:06;;;;;;;10.87;4.80;;;;;;;12.73;81.13;101839.84;6105097;28;20243;-80
2023/06/02 00:23:29;;;;;;;17.90;5.37;;;;;;;12.67;81.90;101837.63;6109640;28;20488;-81
2023/06/02 00:26:49;;;;;;;8.67;4.33;;;;;;;12.77;81.97;101833.19;6103612;28;20653;-80
2023/06/02 00:30:12;;;;;;;8.37;4.77;;;;;;;12.85;82.26;101836.09;6107227;28;20229;-80
2023/06/02 00:33:32;;;;;;;8.43;3.87;;;;;;;13.08;81.50;101833.38;6105013;28;20234;-81
2023/06/02 00:36:55;;;;;;;11.07;4.23;;;;;;;13.01;81.66;101830.28;6117278;28;20359;-80
2023/06/02 00:40:16;;;;;;;7.87;3.53;;;;;;;13.02;81.89;101836.53;6090965;28;20638;-80
2023/06/02 00:43:37;;;;;;;9.77;4.27;;;;;;;13.04;81.51;101832.75;6107007;28;20747;-80
2023/06/02 00:46:58;;;;;;;10.30;4.43;;;;;;;13.02;81.75;101832.00;6100921;28;20330;-80
2023/06/02 00:50:20;;;;;;;18.67;4.23;;;;;;;12.96;81.57;101834.34;6104014;28;22047;-80
2023/06/02 00:53:43;;;;;;;7.90;4.43;;;;;;;12.85;82.02;101836.09;6113404;28;20220;-79
2023/06/02 00:57:06;;;;;;;17.43;5.53;;;;;;;12.80;82.44;101845.59;6115426;28;20236;-79
2023/06/02 01:00:33;;;;;;;12.07;4.97;;;;;;;12.75;82.78;101840.56;6103490;28;20322;-80
2023/06/02 01:03:53;;;;;;;8.60;4.87;;;;;;;12.75;83.11;101845.97;6107272;28;20239;-79
2023/06/02 01:07:23;;;;;;;16.03;5.07;;;;;;;12.81;83.04;101845.47;6103216;28;20239;-79
2023/06/02 01:10:45;;;;;;;7.10;4.00;;;;;;;12.83;83.54;101845.34;6081965;28;20269;-80
2023/06/02 01:14:06;;;;;;;11.70;5.17;;;;;;;12.85;83.49;101851.47;6107696;28;20232;-81
2023/06/02 01:17:30;;;;;;;10.23;4.20;;;;;;;12.78;83.37;101853.84;6109431;28;20224;-81
2023/06/02 01:20:57;;;;;;;7.10;4.10;;;;;;;12.77;84.06;101856.66;6109730;28;20727;-80
2023/06/02 01:24:20;;;;;;;11.10;4.90;;;;;;;12.68;84.11;101852.03;6106713;28;20236;-80
2023/06/02 01:27:41;;;;;;;17.27;4.93;;;;;;;12.54;84.95;101854.97;6101121;28;20251;-81
2023/06/02 01:31:15;;;;;;;8.87;3.10;;;;;;;12.67;84.75;101853.00;6118476;28;20264;-80
2023/06/02 01:34:42;;;;;;;8.23;4.20;;;;;;;12.52;85.27;101852.41;6107180;28;20232;-78
2023/06/02 01:38:03;;;;;;;6.43;3.63;;;;;;;12.44;85.48;101841.34;6105780;28;20240;-78
2023/06/02 01:41:28;;;;;;;10.50;4.23;;;;;;;12.53;85.98;101840.63;6122080;28;20662;-78
2023/06/02 01:44:49;;;;;;;11.17;4.27;;;;;;;12.61;85.43;101842.69;6120336;28;20626;-78
2023/06/02 01:48:11;;;;;;;11.73;5.30;;;;;;;12.52;85.22;101846.13;6105862;28;20327;-78
2023/06/02 01:51:31;;;;;;;6.87;4.30;;;;;;;12.49;86.26;101847.28;6106951;28;20259;-78
2023/06/02 01:54:52;;;;;;;9.73;4.33;;;;;;;12.38;86.55;101852.69;6107564;28;20240;-80
2023/06/02 01:58:15;;;;;;;8.10;4.37;;;;;;;12.34;86.97;101848.50;6105971;28;20236;-79
2023/06/02 02:01:36;;;;;;;10.90;4.43;;;;;;;12.36;86.97;101854.63;6107732;28;20248;-79
2023/06/02 02:04:57;;;;;;;14.83;5.47;;;;;;;12.26;87.59;101852.81;6106776;28;20232;-79
2023/06/02 02:08:18;;;;;;;7.03;4.10;;;;;;;12.36;86.99;101853.78;6107141;28;20271;-80
2023/06/02 02:11:39;;;;;;;11.13;4.40;;;;;;;12.39;87.66;101848.13;6105681;28;20251;-79
2023/06/02 02:15:01;;;;;;;15.40;5.30;;;;;;;12.41;87.63;101844.28;6108361;28;20228;-79
2023/06/02 02:18:24;;;;;;;16.53;5.50;;;;;;;12.34;87.21;101843.09;6106144;28;20239;-80
2023/06/02 02:21:45;;;;;;;15.93;4.27;;;;;;;12.33;87.56;101846.75;6117950;28;20319;-80
2023/06/02 02:25:07;;;;;;;10.70;4.83;;;;;;;12.22;87.78;101852.19;6110652;28;20232;-79
2023/06/02 02:28:28;;;;;;;10.57;5.43;;;;;;;12.26;87.90;101848.25;6105246;28;20627;-79
2023/06/02 02:31:50;;;;;;;8.83;4.10;;;;;;;12.20;88.86;101846.06;6105965;28;20231;-80
2023/06/02 02:35:12;;;;;;;8.17;4.90;;;;;;;12.34;88.52;101847.63;6081925;28;20224;-80
2023/06/02 02:38:33;;;;;;;13.57;4.13;;;;;;;12.26;88.15;101839.28;6095435;28;20608;-80
2023/06/02 02:41:54;;;;;;;15.17;5.63;;;;;;;12.20;88.50;101847.88;6114676;28;20327;-80
2023/06/02 02:45:16;;;;;;;12.07;4.50;;;;;;;12.17;88.99;101840.88;6119858;28;20260;-80
2023/06/02 02:48:39;;;;;;;10.90;4.57;;;;;;;12.29;88.77;101852.53;6089615;28;20244;-78
2023/06/02 02:52:02;;;;;;;8.80;4.77;;;;;;;12.28;89.17;101846.28;6110509;28;20228;-79
2023/06/02 02:55:22;;;;;;;14.37;5.57;;;;;;;12.36;88.41;101853.78;6102907;28;20821;-79
2023/06/02 02:58:44;;;;;;;7.77;5.23;;;;;;;12.30;89.15;101854.28;6097452;28;20237;-79
2023/06/02 03:02:06;;;;;;;9.87;4.50;;;;;;;12.23;88.73;101856.59;6098529;28;20231;-78
2023/06/02 03:05:29;;;;;;;11.63;4.77;;;;;;;12.20;88.95;101861.41;6112503;28;20223;-80
2023/06/02 03:08:50;;;;;;;8.90;4.57;;;;;;;12.14;88.87;101864.59;6092144;28;20263;-80
2023/06/02 03:12:11;;;;;;;7.23;3.37;;;;;;;12.14;89.92;101861.91;6102052;28;20232;-80
2023/06/02 03:15:33;;;;;;;13.53;5.20;;;;;;;12.21;89.18;101863.97;6107985;28;20846;-79
2023/06/02 03:18:54;;;;;;;12.53;5.57;;;;;;;12.15;89.37;101867.16;6079683;28;20248;-80
2023/06/02 03:22:17;;;;;;;14.70;5.53;;;;;;;12.17;89.81;101864.34;6104064;28;20272;-79
2023/06/02 03:25:40;;;;;;;9.63;4.23;;;;;;;12.12;89.40;101875.50;6091849;28;20624;-78
2023/06/02 03:29:03;;;;;;;18.37;5.57;;;;;;;12.17;89.76;101876.03;6109585;28;20965;-78
2023/06/02 03:32:24;;;;;;;10.77;5.40;;;;;;;12.27;89.12;101870.72;6115120;28;20558;-79
2023/06/02 03:35:46;;;;;;;7.87;5.00;;;;;;;12.41;89.20;101871.34;6105625;28;20575;-79
2023/06/02 03:39:10;;;;;;;8.43;4.20;;;;;;;12.37;88.52;101877.97;6090922;28;20327;-79
2023/06/02 03:42:32;;;;;;;7.17;4.43;;;;;;;12.39;89.07;101875.19;6103126;28;20236;-79
2023/06/02 03:45:53;;;;;;;10.50;5.23;;;;;;;12.30;89.34;101878.59;6105560;28;20230;-80
2023/06/02 03:49:14;;;;;;;9.37;5.13;;;;;;;12.34;88.80;101889.06;6092582;28;20288;-79
2023/06/02 03:52:36;;;;;;;7.20;4.30;;;;;;;12.24;89.18;101890.78;6108790;28;20507;-80
2023/06/02 03:55:58;;;;;;;8.73;5.03;;;;;;;12.40;88.92;101882.28;6102723;28;20231;-78
2023/06/02 03:59:20;;;;;;;8.03;4.63;;;;;;;12.44;88.27;101895.44;6090618;28;20519;-80
2023/06/02 04:02:42;;;;;;;6.23;3.80;;;;;;;12.58;88.44;101891.63;6101202;28;20323;-80
2023/06/02 04:06:07;;;;;;;12.50;5.20;;;;;;;12.62;87.75;101899.38;6111895;28;20239;-80
2023/06/02 04:09:28;;;;;;;10.17;4.10;;;;;;;12.69;87.61;101902.44;6092043;28;20318;-80
2023/06/02 04:12:50;;;;;;;8.07;3.50;;;;;;;12.68;87.15;101898.03;6099665;28;20804;-79
2023/06/02 04:16:11;;;;;;;8.97;4.63;;;;;;;12.69;87.19;101906.00;6097072;28;20325;-78
2023/06/02 04:19:33;;;;;;;12.50;4.43;;;;;;;12.68;87.48;101911.56;6088192;28;20242;-79
2023/06/02 04:22:54;;;;;;;10.70;3.93;;;;;;;12.84;86.72;101904.75;6103530;28;20235;-78
2023/06/02 04:26:16;;;;;;;13.70;4.83;;;;;;;12.92;86.27;101905.97;6099778;28;20819;-79
2023/06/02 04:29:40;;;;;;;10.73;4.30;;;;;;;13.03;86.34;101914.06;6110041;28;20239;-79
2023/06/02 04:33:01;;;;;;;7.67;4.40;;;;;;;13.00;85.59;101911.59;6097467;28;20228;-78
2023/06/02 04:36:22;;;;;;;6.20;4.17;;;;;;;12.94;85.57;101912.97;6110267;28;20319;-79
2023/06/02 04:39:47;;;;;;;9.77;3.97;;;;;;;12.94;84.91;101906.69;6093958;28;20239;-78
2023/06/02 04:43:08;;;;;;;11.03;4.37;;;;;;;13.03;84.91;101911.38;6106222;28;20232;-78
2023/06/02 04:46:31;;;;;;;8.90;4.00;;;;;;;13.15;84.12;101923.91;6098039;28;20228;-77
2023/06/02 04:49:52;;;;;;;7.73;3.10;;;;;;;13.10;83.88;101913.47;6104533;28;21724;-79
2023/06/02 04:53:15;;;;;;;6.47;4.13;;;;;;;12.95;83.67;101911.13;6116502;28;20251;-78
2023/06/02 04:56:37;;;;;;;8.53;3.87;;;;;;;13.18;83.66;101912.84;6097674;28;20232;-78
2023/06/02 04:59:59;;;;;;;14.47;5.37;;;;;;;13.35;83.54;101910.44;6087701;28;20311;-78
2023/06/02 05:03:21;;;;;;;7.97;3.83;;;;;;;13.45;82.72;101918.66;6098510;28;20227;-78
2023/06/02 05:06:43;;;;;;;13.37;4.30;;;;;;;13.60;82.55;101920.09;6093735;28;20264;-79
2023/06/02 05:10:06;;;;;;;6.00;3.13;;;;;;;13.79;82.21;101938.34;6103359;28;20617;-73
2023/06/02 05:13:28;;;;;;;11.73;4.10;;;;;;;13.85;81.61;101946.78;6101446;28;20269;-76
2023/06/02 05:16:49;;;;;;;7.03;4.00;;;;;;;13.87;81.22;101942.09;6083831;28;20248;-77
2023/06/02 05:20:12;;;;;;;10.10;4.57;;;;;;;13.92;80.95;101950.69;6095292;28;20287;-77
2023/06/02 05:23:33;;;;;;;5.27;2.67;;;;;;;13.90;80.88;101949.97;6101527;28;20301;-77
2023/06/02 05:26:54;;;;;;;5.37;3.17;;;;;;;13.83;80.81;101956.06;6090087;28;20858;-78
2023/06/02 05:30:15;;;;;;;5.53;3.53;;;;;;;14.04;80.57;101952.34;6094359;28;20251;-74
2023/06/02 05:33:38;;;;;;;5.53;3.40;;;;;;;14.31;80.07;101959.97;6109075;28;20235;-75
2023/06/02 05:37:02;;;;;;;5.97;3.00;;;;;;;14.51;79.29;101956.41;6078624;28;20228;-74
2023/06/02 05:40:23;;;;;;;6.70;3.93;;;;;;;14.40;78.75;101965.47;6110371;28;22105;-75
2023/06/02 05:43:44;;;;;;;4.67;2.73;;;;;;;14.39;78.85;101965.63;6094957;28;20239;-76
2023/06/02 05:47:06;;;;;;;5.77;3.27;;;;;;;14.61;78.31;101964.56;6071162;28;20236;-76
2023/06/02 05:50:27;;;;;;;9.33;3.03;;;;;;;14.60;78.35;101965.59;6104589;28;20308;-77
2023/06/02 05:53:50;;;;;;;6.50;3.67;;;;;;;14.71;78.03;101963.63;6107493;28;20239;-73
2023/06/02 05:57:11;;;;;;;7.67;3.87;;;;;;;14.80;77.81;101967.38;6074665;28;20235;-75
2023/06/02 06:00:32;;;;;;;7.50;3.77;;;;;;;14.84;77.89;101966.97;6113132;28;20540;-76
2023/06/02 06:03:55;;;;;;;4.60;2.83;;;;;;;15.13;78.03;101973.38;6101797;28;20262;-75
2023/06/02 06:07:16;;;;;;;7.07;2.93;;;;;;;15.27;77.70;101972.09;6103449;28;20232;-72
2023/06/02 06:10:42;;;;;;;9.17;4.03;;;;;;;15.64;77.93;101980.50;6092786;28;20637;-79
2023/06/02 06:14:07;;;;;;;14.77;3.53;;;;;;;15.78;77.63;101980.06;6104331;28;20618;-78
2023/06/02 06:17:29;;;;;;;7.37;3.70;;;;;;;16.08;77.15;101977.22;6120226;28;20228;-82
2023/06/02 06:20:50;;;;;;;4.10;2.60;;;;;;;16.32;75.83;101977.59;6106864;28;20758;-73
2023/06/02 06:24:11;;;;;;;6.70;3.60;;;;;;;16.21;75.43;101985.09;6094374;28;20243;-73
2023/06/02 06:27:33;;;;;;;6.80;3.03;;;;;;;16.30;75.25;101986.91;6104551;28;20320;-78
2023/06/02 06:30:54;;;;;;;6.90;3.27;;;;;;;16.55;75.30;101995.34;6108106;28;20259;-76
2023/06/02 06:34:15;;;;;;;4.97;2.57;;;;;;;16.55;74.41;101994.47;6093079;28;20602;-76
2023/06/02 06:37:36;;;;;;;4.63;2.33;;;;;;;16.83;74.43;101993.53;6117103;28;20231;-76
2023/06/02 06:40:57;;;;;;;5.77;2.90;;;;;;;16.76;74.03;101995.13;6109949;28;20238;-75
2023/06/02 06:44:20;;;;;;;5.17;3.00;;;;;;;16.99;73.88;102003.78;6099312;28;20236;-74
2023/06/02 06:47:41;;;;;;;13.73;3.67;;;;;;;17.30;73.46;101997.91;6100441;28;20517;-73
2023/06/02 06:51:04;;;;;;;6.43;4.43;;;;;;;17.21;72.80;102000.69;6102815;28;20778;-77
2023/06/02 06:54:25;;;;;;;3.27;2.43;;;;;;;17.51;72.65;101997.66;6090860;28;20239;-77
2023/06/02 06:57:46;;;;;;;6.93;2.57;;;;;;;17.64;71.96;102006.34;6106820;28;21018;-79
2023/06/02 07:01:08;;;;;;;11.93;3.80;;;;;;;17.96;71.20;102012.09;6078440;29;21451;-77
2023/06/02 07:04:30;;;;;;;4.33;3.10;;;;;;;18.61;70.04;102010.78;6089884;28;20244;-78
2023/06/02 07:07:50;;;;;;;5.47;2.47;;;;;;;18.44;69.75;102016.31;6112796;28;20227;-79
2023/06/02 07:11:12;;;;;;;3.53;2.60;;;;;;;17.98;69.88;102017.41;6104490;28;20235;-77
2023/06/02 07:14:32;;;;;;;7.43;2.80;;;;;;;17.69;70.77;102027.69;6087781;28;20239;-74
2023/06/02 07:17:55;;;;;;;4.90;3.60;;;;;;;17.40;71.37;102042.31;6113638;28;20504;-81
2023/06/02 07:21:16;;;;;;;6.17;3.43;;;;;;;16.81;72.56;102044.59;6113739;28;20239;-75
2023/06/02 07:24:37;;;;;;;8.87;4.80;;;;;;;16.63;73.83;102046.34;6104889;28;20246;-75
2023/06/02 07:27:58;;;;;;;3.60;3.20;;;;;;;16.43;74.79;102052.78;6117828;28;20232;-75
2023/06/02 07:31:19;;;;;;;4.90;3.73;;;;;;;16.38;75.59;102055.94;6096152;28;21210;-74
2023/06/02 07:34:41;;;;;;;4.43;3.97;;;;;;;16.33;76.00;102054.66;6096341;28;20236;-79
2023/06/02 07:38:02;;;;;;;5.97;3.27;;;;;;;16.80;75.66;102059.19;6121433;28;20232;-78
2023/06/02 07:41:22;;;;;;;6.53;3.57;;;;;;;17.25;74.45;102060.16;6110607;28;20231;-79
2023/06/02 07:44:43;;;;;;;5.63;3.80;;;;;;;17.59;73.10;102074.09;6113951;28;20748;-76
2023/06/02 07:48:04;;;;;;;3.10;2.63;;;;;;;17.51;72.32;102068.56;6105760;28;20231;-75
2023/06/02 07:51:27;;;;;;;5.00;3.80;;;;;;;17.84;71.57;102069.78;6114999;28;20250;-73
2023/06/02 07:54:48;;;;;;;6.83;3.47;;;;;;;17.81;70.71;102070.97;6100367;28;20239;-78
2023/06/02 07:58:09;;;;;;;6.83;4.20;;;;;;;17.88;70.31;102065.72;6111855;28;20227;-79
2023/06/02 08:01:30;;;;;;;3.97;3.67;;;;;;;17.68;70.23;102073.19;6100757;28;20278;-76
2023/06/02 08:04:50;;;;;;;5.23;3.50;;;;;;;17.53;70.84;102069.25;6084360;28;20230;-77
2023/06/02 08:08:12;;;;;;;3.88;2.90;;;;;;;17.78;70.35;102063.06;6102596;28;20233;-76
2023/06/02 08:11:33;;;;;;;5.53;3.55;;;;;;;17.42;70.26;102073.00;6085526;28;20248;-77
2023/06/02 08:14:54;;;;;;;3.88;2.47;;;;;;;17.36;70.38;102067.28;6106028;28;20578;-76
2023/06/02 08:18:15;;;;;;;4.17;3.30;;;;;;;17.61;70.05;102074.81;6118701;28;20244;-76
2023/06/02 08:21:39;;;;;;;3.50;3.17;;;;;;;17.88;69.42;102076.63;6116170;28;20774;-76
2023/06/02 08:25:02;;;;;;;4.30;3.60;;;;;;;17.95;69.09;102075.03;6111453;28;20231;-77
2023/06/02 08:28:25;;;;;;;3.77;3.17;;;;;;;17.31;69.45;102078.66;6115703;28;20523;-77
2023/06/02 08:31:46;;;;;;;6.07;3.03;;;;;;;17.41;69.88;102090.41;6101746;28;20236;-76
2023/06/02 08:35:07;;;;;;;3.70;3.07;;;;;;;17.70;69.18;102093.00;6111195;28;20239;-77
2023/06/02 08:38:30;;;;;;;3.03;2.70;;;;;;;18.14;68.21;102081.22;6112265;28;20235;-78
2023/06/02 08:41:52;;;;;;;8.60;2.55;;;;;;;18.34;67.38;102090.94;6102480;28;20243;-78
2023/06/02 08:45:13;;;;;;;5.60;3.45;;;;;;;18.20;67.49;102085.19;6113614;28;20231;-77
2023/06/02 08:48:36;;;;;;;2.75;2.33;;;;;;;17.89;67.80;102092.00;6121161;28;20497;-76
2023/06/02 08:52:03;;;;;;;3.42;2.75;;;;;;;17.73;68.33;102103.59;6121058;28;20544;-76
2023/06/02 08:55:25;;;;;;;6.93;2.97;;;;;;;18.42;68.01;102102.97;6117242;28;20231;-76
2023/06/02 08:58:48;;;;;;;5.43;2.50;;;;;;;18.56;66.57;102097.84;6113659;28;20664;-76
2023/06/02 09:02:09;;;;;;;2.83;2.05;;;;;;;18.73;65.38;102096.91;6106108;28;20236;-76
2023/06/02 09:05:32;;;;;;;6.07;2.92;;;;;;;18.34;65.36;102101.00;6109356;28;20231;-76
2023/06/02 09:08:57;;;;;;;8.88;2.42;;;;;;;18.26;65.86;102099.06;6115840;28;20318;-77
2023/06/02 09:12:19;;;;;;;3.30;2.22;;;;;;;18.27;66.30;102108.13;6107447;28;20236;-77
2023/06/02 09:19:08;;;;;;;2.00;1.80;;;;;;;17.56;66.04;102123.50;6256635;27;20903;-76
2023/06/02 09:22:29;;;;;;;5.60;2.10;;;;;;;17.49;66.29;102116.91;6267005;28;20240;-76
2023/06/02 09:25:51;;;;;;;2.97;2.17;;;;;;;17.66;66.02;102124.31;6249075;28;20560;-77
2023/06/02 09:29:13;;;;;;;3.15;1.92;;;;;;;17.90;65.57;102123.75;6232812;28;22647;-75
2023/06/02 09:32:36;;;;;;;4.30;2.22;;;;;;;18.38;64.64;102122.38;6252443;28;20236;-77
2023/06/02 09:35:58;;;;;;;2.25;2.08;;;;;;;18.78;63.95;102121.03;6238099;28;20270;-77
2023/06/02 09:39:41;;;;;;;3.80;2.25;;;;;;;19.13;62.18;102112.75;6219399;28;20228;-77
2023/06/02 09:43:05;;;;;;;3.03;2.17;;;;;;;19.78;59.57;102119.44;6233172;28;20220;-73
2023/06/02 09:46:30;;;;;;;3.85;1.75;;;;;;;20.43;58.59;102115.00;6216123;28;20244;-77
2023/06/02 09:49:51;;;;;;;3.20;1.80;;;;;;;20.07;58.20;102125.34;6233943;28;20227;-81
2023/06/02 09:53:15;;;;;;;2.40;1.83;;;;;;;19.37;59.21;102132.09;6243053;28;20614;-76
2023/06/02 09:56:37;;;;;;;1.30;1.27;;;;;;;19.04;59.05;102136.47;6251733;28;20562;-77
2023/06/02 09:59:59;;;;;;;1.75;1.65;;;;;;;19.10;58.92;102138.56;6240679;28;20255;-77
2023/06/02 10:03:20;;;;;;;3.90;1.80;;;;;;;19.78;58.11;102130.38;6245105;28;21198;-80
2023/06/02 10:06:56;;;;;;;3.00;1.80;;;;;;;20.55;56.53;102127.34;6244394;28;20228;-76
2023/06/02 10:10:27;;;;;;;2.15;1.63;;;;;;;20.78;55.38;102138.50;6247435;28;20596;-77
2023/06/02 10:14:01;;;;;;;2.15;1.10;;;;;;;19.92;55.25;102144.28;6231030;28;20260;-78
2023/06/02 10:17:30;;;;;;;2.70;1.58;;;;;;;20.23;55.12;102139.13;6221403;28;20240;-78
2023/06/02 10:21:04;;;;;;;2.00;1.23;;;;;;;20.31;54.39;102136.41;6223957;28;20242;-79
2023/06/02 10:24:33;;;;;;;1.27;1.17;;;;;;;20.17;54.90;102138.91;6231333;28;20253;-77
2023/06/02 10:27:55;;;;;;;1.30;1.20;;;;;;;20.08;54.49;102145.38;6235231;28;20347;-78
2023/06/02 10:31:17;;;;;;;2.35;1.42;;;;;;;20.01;54.06;102141.56;6223140;28;20256;-78
2023/06/02 10:34:40;;;;;;;1.73;1.27;;;;;;;20.44;53.13;102144.13;6219713;28;20231;-74
2023/06/02 10:38:24;;;;;;;2.00;1.42;;;;;;;20.72;51.74;102140.03;6228443;28;20243;-74
2023/06/02 10:42:08;;;;;;;1.63;1.30;;;;;;;20.88;50.97;102145.50;6226445;28;20234;-73
2023/06/02 10:45:41;;;;;;;1.13;0.95;;;;;;;21.60;50.16;102147.28;6216882;28;20351;-74
2023/06/02 10:49:02;;;;;;;1.42;1.13;;;;;;;21.19;50.54;102152.03;6202646;28;20221;-74
2023/06/02 10:52:23;;;;;;;2.55;0.90;;;;;;;21.15;50.61;102153.38;6214791;28;20248;-77
2023/06/02 10:55:44;;;;;;;2.33;1.95;;;;;;;20.98;50.25;102146.19;6210029;28;20232;-74
2023/06/02 10:59:05;;;;;;;1.10;1.00;;;;;;;21.47;49.84;102150.59;6193134;28;20382;-76
2023/06/02 11:02:43;;;;;;;1.42;1.13;;;;;;;21.72;49.21;102153.22;6220457;28;20221;-73
2023/06/02 11:06:24;;;;;;;2.25;1.10;;;;;;;21.54;48.44;102145.25;6224851;28;20220;-78
2023/06/02 11:09:46;;;;;;;1.33;1.00;;;;;;;21.03;48.86;102153.91;6225400;28;20235;-76
2023/06/02 11:13:07;;;;;;;1.08;0.93;;;;;;;21.05;48.40;102146.41;6210876;28;20236;-77
2023/06/02 11:16:28;;;;;;;0.82;0.82;;;;;;;21.69;47.77;102154.47;6226181;28;20224;-75
2023/06/02 11:19:50;;;;;;;1.45;1.35;;;;;;;21.53;47.81;102161.91;6207041;28;20259;-76
2023/06/02 11:23:11;;;;;;;2.05;1.75;;;;;;;20.61;48.87;102157.66;6212573;28;20228;-76
2023/06/02 11:26:32;;;;;;;1.73;1.13;;;;;;;20.20;49.76;102164.09;6202169;28;20225;-75
2023/06/02 11:30:09;;;;;;;1.38;1.23;;;;;;;20.07;49.03;102160.09;6218970;28;20311;-78
2023/06/02 11:33:32;;;;;;;4.80;1.23;;;;;;;20.41;47.68;102163.63;6223036;28;20323;-79
2023/06/02 11:36:59;;;;;;;6.60;1.67;;;;;;;21.23;46.72;102156.13;6227739;28;20553;-87
2023/06/02 11:40:20;;;;;;;2.20;1.20;;;;;;;21.77;45.40;102157.19;6218743;28;20220;-78
2023/06/02 11:43:43;;;;;;;3.30;1.70;;;;;;;21.94;45.38;102147.88;6226340;28;20229;-76
2023/06/02 11:47:04;;;;;;;3.22;1.15;;;;;;;21.13;45.03;102160.94;6217776;28;20225;-76
2023/06/02 11:50:25;;;;;;;12.38;1.20;;;;;;;21.00;45.76;102166.06;6224460;28;20228;-81
2023/06/02 11:53:59;;;;;;;5.47;1.80;;;;;;;20.52;46.49;102174.28;6217551;28;20232;-84
2023/06/02 11:57:28;;;;;;;4.10;1.58;;;;;;;20.84;46.56;102176.19;6215031;28;20233;-81
2023/06/02 12:00:50;;;;;;;1.90;1.20;;;;;;;21.60;45.54;102171.13;6213821;28;20761;-84
2023/06/02 12:04:13;;;;;;;1.00;0.85;;;;;;;22.31;44.83;102179.25;6212119;28;20228;-76
2023/06/02 12:07:34;;;;;;;2.60;1.20;;;;;;;22.74;43.72;102178.63;6221147;28;20224;-73
2023/06/02 12:10:56;;;;;;;1.52;1.15;;;;;;;23.00;43.18;102179.13;6230875;28;20227;-73
2023/06/02 12:14:16;;;;;;;1.20;1.10;;;;;;;22.76;43.27;102182.09;6210134;28;20817;-77
2023/06/02 12:17:40;;;;;;;1.55;1.27;;;;;;;21.70;43.44;102180.00;6237401;28;20601;-78
2023/06/02 12:21:02;;;;;;;2.60;2.00;;;;;;;22.46;42.82;102172.81;6232573;28;20244;-80
2023/06/02 12:24:29;;;;;;;2.38;1.42;;;;;;;23.34;42.23;102175.91;6216767;28;20237;-73
2023/06/02 12:27:51;;;;;;;1.88;1.35;;;;;;;22.72;40.98;102166.97;6232759;28;20724;-76
2023/06/02 12:31:13;;;;;;;3.03;1.15;;;;;;;22.76;41.34;102165.59;6230849;28;20524;-72
2023/06/02 12:34:34;;;;;;;1.65;1.20;;;;;;;23.36;40.81;102168.31;6215940;28;20236;-73
2023/06/02 12:37:56;;;;;;;11.38;2.00;;;;;;;23.21;40.42;102168.25;6225063;28;20229;-73
2023/06/02 12:41:17;;;;;;;1.95;1.75;;;;;;;22.86;40.72;102172.50;6223320;28;20577;-73
2023/06/02 12:44:39;;;;;;;2.40;1.20;;;;;;;22.16;41.53;102176.41;6214492;28;20232;-75
2023/06/02 12:48:01;;;;;;;1.80;0.85;;;;;;;21.91;42.33;102178.41;6229555;28;20576;-73
2023/06/02 12:51:22;;;;;;;3.13;1.63;;;;;;;21.80;42.29;102176.03;6222450;28;20244;-77
2023/06/02 12:54:43;;;;;;;4.28;2.78;;;;;;;22.18;41.41;102190.81;6213764;28;20634;-73
2023/06/02 12:58:04;;;;;;;1.85;1.70;;;;;;;22.62;40.67;102188.34;6234315;28;20232;-81
2023/06/02 13:01:26;;;;;;;2.35;1.40;;;;;;;23.04;40.75;102184.06;6215207;28;20240;-70
2023/06/02 13:04:47;;;;;;;2.35;1.27;;;;;;;23.25;39.67;102193.50;6219765;28;20235;-73
2023/06/02 13:08:08;;;;;;;0.80;0.80;;;;;;;23.07;39.76;102195.75;6229438;28;20232;-72
2023/06/02 13:11:29;;;;;;;2.30;2.08;;;;;;;24.57;37.62;102195.19;6226381;28;20233;-74
2023/06/02 13:14:50;;;;;;;2.55;1.70;;;;;;;26.84;34.83;102187.81;6220017;28;20255;-73
2023/06/02 13:18:13;;;;;;;1.63;0.90;;;;;;;28.24;32.55;102198.31;6226327;28;20237;-74
2023/06/02 13:21:34;;;;;;;4.10;2.47;;;;;;;29.23;31.62;102189.41;6231577;28;20504;-74
2023/06/02 13:24:54;;;;;;;3.60;1.33;;;;;;;28.48;31.33;102203.09;6215816;28;21421;-73
2023/06/02 13:28:16;;;;;;;1.88;1.40;;;;;;;29.24;30.57;102194.72;6225863;28;20224;-72
2023/06/02 13:31:38;;;;;;;4.85;4.15;;;;;;;29.58;30.40;102194.16;6215663;28;20245;-74
2023/06/02 13:35:00;;;;;;;6.45;2.75;;;;;;;29.45;29.65;102190.69;6215683;28;21144;-73
2023/06/02 13:38:21;;;;;;;6.50;3.80;;;;;;;29.90;29.58;102200.50;6229219;28;20262;-72
2023/06/02 13:41:42;;;;;;;2.38;1.92;;;;;;;29.26;30.00;102195.34;6228767;28;20263;-73
2023/06/02 13:45:03;;;;;;;1.60;0.73;;;;;;;28.02;30.93;102194.13;6219689;28;20289;-73
2023/06/02 13:48:24;;;;;;;2.00;1.33;;;;;;;27.28;30.70;102207.44;6230952;28;20225;-74
2023/06/02 13:51:48;;;;;;;2.50;1.40;;;;;;;26.72;31.84;102206.94;6217452;28;20634;-73
2023/06/02 13:55:09;;;;;;;1.83;1.65;;;;;;;27.27;32.13;102213.16;6224565;28;20228;-73
2023/06/02 13:58:35;;;;;;;3.17;2.88;;;;;;;27.50;31.19;102213.59;6222005;28;20508;-75
2023/06/02 14:01:57;;;;;;;9.00;3.88;;;;;;;26.20;31.95;102209.50;6192848;28;20229;-74
2023/06/02 14:05:18;;;;;;;1.60;1.50;;;;;;;25.39;32.34;102211.06;6204464;28;20269;-74
2023/06/02 14:08:40;;;;;;;1.27;0.90;;;;;;;25.12;32.85;102224.84;6218594;28;22230;-74
2023/06/02 14:12:01;;;;;;;0.95;0.90;;;;;;;25.35;32.93;102220.81;6222969;28;20221;-78
2023/06/02 14:15:22;;;;;;;1.35;1.10;;;;;;;24.76;33.02;102222.19;6214780;28;20497;-79
2023/06/02 14:18:43;;;;;;;2.92;2.25;;;;;;;24.39;33.47;102219.56;6226369;28;20236;-79
2023/06/02 14:22:04;;;;;;;2.40;2.15;;;;;;;24.64;33.51;102209.88;6215447;28;20229;-81
2023/06/02 14:25:27;;;;;;;1.45;1.10;;;;;;;24.96;33.20;102222.38;6212052;28;20756;-79
2023/06/02 14:28:48;;;;;;;4.72;2.30;;;;;;;24.28;33.66;102203.56;6219871;28;20328;-77
2023/06/02 14:32:09;;;;;;;6.28;5.45;;;;;;;24.75;34.02;102214.06;6200642;28;20264;-76
2023/06/02 14:35:30;;;;;;;3.85;2.20;;;;;;;24.70;33.64;102217.38;6211714;28;21551;-78
2023/06/02 14:38:51;;;;;;;3.35;1.60;;;;;;;24.11;32.97;102218.59;6214922;28;20248;-80
2023/06/02 14:42:13;;;;;;;3.90;2.53;;;;;;;23.92;33.74;102219.13;6206546;28;20235;-79
2023/06/02 14:45:34;;;;;;;7.85;2.67;;;;;;;23.90;33.68;102210.22;6205971;28;20224;-79
2023/06/02 14:48:55;;;;;;;2.13;1.20;;;;;;;24.11;33.54;102213.94;6217761;28;20229;-79
2023/06/02 14:52:16;;;;;;;2.67;1.38;;;;;;;24.43;32.98;102216.25;6210879;28;20248;-80
2023/06/02 14:55:37;;;;;;;1.67;1.48;;;;;;;24.43;32.27;102221.75;6197106;28;20236;-78
2023/06/02 14:58:59;;;;;;;1.52;1.15;;;;;;;24.40;32.57;102213.03;6209568;28;20245;-78
2023/06/02 15:02:20;;;;;;;1.52;1.35;;;;;;;24.58;33.07;102224.47;6200199;28;20228;-79
2023/06/02 15:05:41;;;;;;;4.22;1.35;;;;;;;24.49;32.98;102223.72;6204366;28;20227;-78
2023/06/02 15:09:02;;;;;;;2.97;0.95;;;;;;;24.47;32.43;102213.94;6212842;28;20252;-78
2023/06/02 15:12:22;;;;;;;1.52;1.08;;;;;;;24.75;32.08;102227.88;6206174;28;20252;-80
2023/06/02 15:15:45;;;;;;;1.40;1.13;;;;;;;25.12;31.88;102222.06;6195279;28;20232;-80
2023/06/02 15:19:06;;;;;;;1.05;0.93;;;;;;;24.79;31.23;102220.91;6209664;28;20232;-79
2023/06/02 15:22:27;;;;;;;2.47;0.85;;;;;;;24.84;31.18;102223.94;6190531;28;20266;-79
2023/06/02 15:25:48;;;;;;;1.67;1.58;;;;;;;24.43;31.25;102234.69;6177182;28;20228;-78
2023/06/02 15:29:10;;;;;;;1.98;0.95;;;;;;;24.38;31.07;102227.00;6180153;28;20255;-79
2023/06/02 15:32:32;;;;;;;7.03;6.28;;;;;;;24.89;31.15;102230.56;6194607;28;20237;-80
2023/06/02 15:35:53;;;;;;;2.75;1.80;;;;;;;23.92;30.62;102222.75;6196382;28;20262;-77
2023/06/02 15:39:16;;;;;;;2.90;2.00;;;;;;;24.33;31.02;102232.25;6181783;28;20729;-78
2023/06/02 15:42:37;;;;;;;3.28;2.97;;;;;;;24.61;30.40;102226.84;6195327;28;20265;-78
2023/06/02 15:45:58;;;;;;;1.40;1.30;;;;;;;24.10;30.39;102234.25;6188733;28;20228;-78